sensor_id;sensor_type;location;lat;lon;timestamp;pressure;altitude;pressure_sealevel;temperature;humidity
12077;BME280;12420;42.676;23.262;2023-03-09T00:01:19;93846.19;;;10.98;58.08
12077;BME280;12420;42.676;23.262;2023-03-09T00:03:47;93915.03;;;11.45;58.45
12077;BME280;12420;42.676;23.262;2023-03-09T00:06:14;93897.97;;;11.26;58.40
12077;BME280;12420;42.676;23.262;2023-03-09T00:08:41;93876.16;;;11.15;58.27
12077;BME280;12420;42.676;23.262;2023-03-09T00:11:08;93823.97;;;10.82;58.33
12077;BME280;12420;42.676;23.262;2023-03-09T00:13:36;93894.69;;;11.43;58.48
12077;BME280;12420;42.676;23.262;2023-03-09T00:16:08;93940.69;;;11.46;58.30
12077;BME280;12420;42.676;23.262;2023-03-09T00:18:35;93780.06;;;10.35;58.76
12077;BME280;12420;42.676;23.262;2023-03-09T00:21:02;93866.84;;;10.97;58.83
12077;BME280;12420;42.676;23.262;2023-03-09T00:23:30;93815.44;;;10.65;59.19
12077;BME280;12420;42.676;23.262;2023-03-09T00:26:01;93880.16;;;11.06;59.34
12077;BME280;12420;42.676;23.262;2023-03-09T00:28:29;93909.75;;;11.19;59.47
12077;BME280;12420;42.676;23.262;2023-03-09T00:31:01;93878.56;;;10.74;61.49
12077;BME280;12420;42.676;23.262;2023-03-09T00:33:28;93915.25;;;10.67;63.68
12077;BME280;12420;42.676;23.262;2023-03-09T00:35:55;93836.00;;;9.91;64.56
12077;BME280;12420;42.676;23.262;2023-03-09T00:38:22;93904.53;;;10.35;65.41
12077;BME280;12420;42.676;23.262;2023-03-09T00:40:49;93807.00;;;9.35;67.00
12077;BME280;12420;42.676;23.262;2023-03-09T00:43:16;93890.69;;;9.85;67.68
12077;BME280;12420;42.676;23.262;2023-03-09T00:45:43;93874.19;;;9.72;67.60
12077;BME280;12420;42.676;23.262;2023-03-09T00:48:11;93887.94;;;9.85;67.95
12077;BME280;12420;42.676;23.262;2023-03-09T00:50:38;93894.41;;;9.88;67.94
12077;BME280;12420;42.676;23.262;2023-03-09T00:53:05;93874.09;;;9.43;69.23
12077;BME280;12420;42.676;23.262;2023-03-09T00:55:33;93829.22;;;9.08;69.25
12077;BME280;12420;42.676;23.262;2023-03-09T00:58:01;93852.72;;;9.23;69.31
12077;BME280;12420;42.676;23.262;2023-03-09T01:00:27;93914.56;;;9.75;69.49
12077;BME280;12420;42.676;23.262;2023-03-09T01:02:57;93885.78;;;9.49;69.99
12077;BME280;12420;42.676;23.262;2023-03-09T01:05:26;93883.59;;;9.55;70.18
12077;BME280;12420;42.676;23.262;2023-03-09T01:07:53;93899.97;;;9.53;70.25
12077;BME280;12420;42.676;23.262;2023-03-09T01:10:20;93910.38;;;9.61;70.06
12077;BME280;12420;42.676;23.262;2023-03-09T01:12:47;93776.72;;;8.66;70.93
12077;BME280;12420;42.676;23.262;2023-03-09T01:15:14;93766.13;;;8.57;71.09
12077;BME280;12420;42.676;23.262;2023-03-09T01:17:41;93855.28;;;9.21;70.95
12077;BME280;12420;42.676;23.262;2023-03-09T01:20:10;93895.59;;;9.37;71.68
12077;BME280;12420;42.676;23.262;2023-03-09T01:22:38;93872.75;;;9.37;71.57
12077;BME280;12420;42.676;23.262;2023-03-09T01:25:06;93802.13;;;8.25;72.44
12077;BME280;12420;42.676;23.262;2023-03-09T01:27:33;93863.38;;;9.19;72.81
12077;BME280;12420;42.676;23.262;2023-03-09T01:30:00;93782.50;;;8.29;73.33
12077;BME280;12420;42.676;23.262;2023-03-09T01:32:26;93916.78;;;9.08;73.49
12077;BME280;12420;42.676;23.262;2023-03-09T01:34:53;93853.88;;;9.06;73.66
12077;BME280;12420;42.676;23.262;2023-03-09T01:37:20;93881.59;;;9.01;73.66
12077;BME280;12420;42.676;23.262;2023-03-09T01:39:48;93792.47;;;8.45;74.06
12077;BME280;12420;42.676;23.262;2023-03-09T01:42:17;93845.13;;;8.81;74.69
12077;BME280;12420;42.676;23.262;2023-03-09T01:44:44;93841.84;;;8.69;75.27
12077;BME280;12420;42.676;23.262;2023-03-09T01:47:11;93730.50;;;7.85;75.66
12077;BME280;12420;42.676;23.262;2023-03-09T01:49:41;93850.66;;;8.68;75.85
12077;BME280;12420;42.676;23.262;2023-03-09T01:52:12;93740.25;;;7.46;76.97
12077;BME280;12420;42.676;23.262;2023-03-09T01:54:45;93764.19;;;7.78;77.48
12077;BME280;12420;42.676;23.262;2023-03-09T01:57:20;93850.38;;;8.45;77.19
12077;BME280;12420;42.676;23.262;2023-03-09T01:59:50;93869.78;;;8.53;77.04
12077;BME280;12420;42.676;23.262;2023-03-09T02:02:18;93862.31;;;8.34;77.68
12077;BME280;12420;42.676;23.262;2023-03-09T02:04:49;93717.50;;;7.46;78.03
12077;BME280;12420;42.676;23.262;2023-03-09T02:07:18;93858.63;;;8.32;78.38
12077;BME280;12420;42.676;23.262;2023-03-09T02:09:49;93849.72;;;8.25;78.53
12077;BME280;12420;42.676;23.262;2023-03-09T02:12:21;93862.22;;;8.26;78.78
12077;BME280;12420;42.676;23.262;2023-03-09T02:14:49;93873.91;;;8.19;79.41
12077;BME280;12420;42.676;23.262;2023-03-09T02:17:16;93811.34;;;7.61;80.12
12077;BME280;12420;42.676;23.262;2023-03-09T02:19:52;93859.28;;;8.24;79.02
12077;BME280;12420;42.676;23.262;2023-03-09T02:22:21;93841.69;;;8.14;79.10
12077;BME280;12420;42.676;23.262;2023-03-09T02:24:58;93754.84;;;7.41;78.71
12077;BME280;12420;42.676;23.262;2023-03-09T02:27:29;93864.97;;;8.13;78.28
12077;BME280;12420;42.676;23.262;2023-03-09T02:29:57;93842.41;;;8.15;78.43
12077;BME280;12420;42.676;23.262;2023-03-09T02:32:24;93858.09;;;8.33;78.41
12077;BME280;12420;42.676;23.262;2023-03-09T02:34:51;93841.75;;;8.09;78.38
12077;BME280;12420;42.676;23.262;2023-03-09T02:37:23;93860.88;;;8.20;79.11
12077;BME280;12420;42.676;23.262;2023-03-09T02:39:50;93863.41;;;8.31;78.77
12077;BME280;12420;42.676;23.262;2023-03-09T02:42:20;93855.88;;;8.18;78.39
12077;BME280;12420;42.676;23.262;2023-03-09T02:44:49;93871.03;;;8.52;77.73
12077;BME280;12420;42.676;23.262;2023-03-09T02:47:19;93853.75;;;8.38;78.64
12077;BME280;12420;42.676;23.262;2023-03-09T02:49:46;93761.47;;;7.91;78.16
12077;BME280;12420;42.676;23.262;2023-03-09T02:52:14;93790.34;;;8.11;77.11
12077;BME280;12420;42.676;23.262;2023-03-09T02:54:41;93805.66;;;7.99;76.72
12077;BME280;12420;42.676;23.262;2023-03-09T02:57:08;93712.59;;;7.65;76.33
12077;BME280;12420;42.676;23.262;2023-03-09T02:59:35;93894.91;;;8.76;76.39
12077;BME280;12420;42.676;23.262;2023-03-09T03:02:03;93851.00;;;8.51;77.22
12077;BME280;12420;42.676;23.262;2023-03-09T03:04:30;93886.63;;;8.62;77.09
12077;BME280;12420;42.676;23.262;2023-03-09T03:06:57;93895.34;;;8.53;78.29
12077;BME280;12420;42.676;23.262;2023-03-09T03:09:25;93717.66;;;7.21;79.73
12077;BME280;12420;42.676;23.262;2023-03-09T03:11:53;93763.44;;;7.51;79.73
12077;BME280;12420;42.676;23.262;2023-03-09T03:14:20;93871.50;;;8.42;79.81
12077;BME280;12420;42.676;23.262;2023-03-09T03:16:48;93757.72;;;7.62;79.38
12077;BME280;12420;42.676;23.262;2023-03-09T03:19:16;93877.06;;;8.37;79.21
12077;BME280;12420;42.676;23.262;2023-03-09T03:21:43;93884.09;;;8.38;79.42
12077;BME280;12420;42.676;23.262;2023-03-09T03:24:10;93888.56;;;8.41;79.47
12077;BME280;12420;42.676;23.262;2023-03-09T03:26:37;93870.72;;;8.29;79.14
12077;BME280;12420;42.676;23.262;2023-03-09T03:29:05;93840.63;;;8.04;79.88
12077;BME280;12420;42.676;23.262;2023-03-09T03:31:32;93904.84;;;8.39;80.12
12077;BME280;12420;42.676;23.262;2023-03-09T03:33:59;93865.53;;;8.12;80.05
12077;BME280;12420;42.676;23.262;2023-03-09T03:36:27;93897.75;;;8.17;81.52
12077;BME280;12420;42.676;23.262;2023-03-09T03:38:54;93866.06;;;8.10;81.41
12077;BME280;12420;42.676;23.262;2023-03-09T03:41:21;93860.44;;;8.02;80.96
12077;BME280;12420;42.676;23.262;2023-03-09T03:43:48;93858.19;;;8.01;81.12
12077;BME280;12420;42.676;23.262;2023-03-09T03:46:15;93867.22;;;8.15;80.49
12077;BME280;12420;42.676;23.262;2023-03-09T03:48:41;93877.41;;;8.20;80.74
12077;BME280;12420;42.676;23.262;2023-03-09T03:51:08;93841.88;;;7.90;80.94
12077;BME280;12420;42.676;23.262;2023-03-09T03:53:36;93877.63;;;8.22;81.04
12077;BME280;12420;42.676;23.262;2023-03-09T03:56:04;93888.44;;;8.33;80.56
12077;BME280;12420;42.676;23.262;2023-03-09T03:58:30;93881.09;;;8.36;80.64
12077;BME280;12420;42.676;23.262;2023-03-09T04:00:57;93888.44;;;8.33;80.24
12077;BME280;12420;42.676;23.262;2023-03-09T04:03:24;93880.78;;;8.13;80.69
12077;BME280;12420;42.676;23.262;2023-03-09T04:05:51;93890.22;;;8.31;81.00
12077;BME280;12420;42.676;23.262;2023-03-09T04:08:17;93891.91;;;8.34;80.32
12077;BME280;12420;42.676;23.262;2023-03-09T04:10:45;93871.34;;;8.21;80.51
12077;BME280;12420;42.676;23.262;2023-03-09T04:13:12;93876.84;;;8.21;80.84
12077;BME280;12420;42.676;23.262;2023-03-09T04:15:39;93899.88;;;8.24;81.26
12077;BME280;12420;42.676;23.262;2023-03-09T04:18:06;93875.59;;;8.22;80.67
12077;BME280;12420;42.676;23.262;2023-03-09T04:20:34;93801.47;;;7.66;80.19
12077;BME280;12420;42.676;23.262;2023-03-09T04:23:01;93861.94;;;8.17;80.09
12077;BME280;12420;42.676;23.262;2023-03-09T04:25:28;93889.59;;;8.38;80.09
12077;BME280;12420;42.676;23.262;2023-03-09T04:27:56;93878.81;;;8.40;80.38
12077;BME280;12420;42.676;23.262;2023-03-09T04:30:24;93884.31;;;8.40;80.11
12077;BME280;12420;42.676;23.262;2023-03-09T04:32:50;93845.91;;;8.29;80.02
12077;BME280;12420;42.676;23.262;2023-03-09T04:35:18;93865.09;;;8.34;80.26
12077;BME280;12420;42.676;23.262;2023-03-09T04:37:45;93867.22;;;8.28;80.56
12077;BME280;12420;42.676;23.262;2023-03-09T04:40:17;93871.34;;;8.21;80.97
12077;BME280;12420;42.676;23.262;2023-03-09T04:42:44;93848.88;;;8.17;81.39
12077;BME280;12420;42.676;23.262;2023-03-09T04:45:12;93874.94;;;8.16;81.46
12077;BME280;12420;42.676;23.262;2023-03-09T04:47:39;93867.09;;;7.94;82.42
12077;BME280;12420;42.676;23.262;2023-03-09T04:50:08;93848.78;;;7.96;82.62
12077;BME280;12420;42.676;23.262;2023-03-09T04:52:35;93809.22;;;7.67;82.71
12077;BME280;12420;42.676;23.262;2023-03-09T04:55:01;93820.47;;;7.37;83.19
12077;BME280;12420;42.676;23.262;2023-03-09T04:57:28;93838.78;;;7.34;84.47
12077;BME280;12420;42.676;23.262;2023-03-09T04:59:55;93853.00;;;7.38;84.88
12077;BME280;12420;42.676;23.262;2023-03-09T05:02:23;93854.34;;;7.64;84.97
12077;BME280;12420;42.676;23.262;2023-03-09T05:04:51;93849.78;;;7.67;85.54
12077;BME280;12420;42.676;23.262;2023-03-09T05:07:18;93832.69;;;7.55;84.62
12077;BME280;12420;42.676;23.262;2023-03-09T05:09:45;93842.28;;;7.80;84.88
12077;BME280;12420;42.676;23.262;2023-03-09T05:12:12;93865.28;;;7.83;84.70
12077;BME280;12420;42.676;23.262;2023-03-09T05:14:38;93788.72;;;7.36;84.48
12077;BME280;12420;42.676;23.262;2023-03-09T05:17:05;93840.81;;;7.93;84.37
12077;BME280;12420;42.676;23.262;2023-03-09T05:19:33;93809.31;;;7.61;84.62
12077;BME280;12420;42.676;23.262;2023-03-09T05:22:02;93829.22;;;7.54;84.35
12077;BME280;12420;42.676;23.262;2023-03-09T05:24:29;93846.44;;;7.87;85.27
12077;BME280;12420;42.676;23.262;2023-03-09T05:26:59;93806.25;;;7.65;84.51
12077;BME280;12420;42.676;23.262;2023-03-09T05:29:25;93857.88;;;8.04;84.85
12077;BME280;12420;42.676;23.262;2023-03-09T05:31:52;93861.38;;;8.18;84.45
12077;BME280;12420;42.676;23.262;2023-03-09T05:34:21;93838.25;;;8.21;82.90
12077;BME280;12420;42.676;23.262;2023-03-09T05:36:49;93828.94;;;8.11;82.66
12077;BME280;12420;42.676;23.262;2023-03-09T05:39:16;93871.28;;;8.40;82.35
12077;BME280;12420;42.676;23.262;2023-03-09T05:41:43;93884.63;;;8.50;82.06
12077;BME280;12420;42.676;23.262;2023-03-09T05:44:09;93851.19;;;8.26;81.11
12077;BME280;12420;42.676;23.262;2023-03-09T05:46:37;93872.84;;;8.62;92.61
12077;BME280;12420;42.676;23.262;2023-03-09T05:49:10;93845.06;;;8.47;81.54
12077;BME280;12420;42.676;23.262;2023-03-09T05:51:36;93890.13;;;8.76;82.52
12077;BME280;12420;42.676;23.262;2023-03-09T05:54:06;93878.75;;;8.80;79.44
12077;BME280;12420;42.676;23.262;2023-03-09T05:56:33;93880.03;;;8.79;79.34
12077;BME280;12420;42.676;23.262;2023-03-09T05:58:59;93892.94;;;8.97;78.60
12077;BME280;12420;42.676;23.262;2023-03-09T06:01:27;93902.59;;;9.04;77.85
12077;BME280;12420;42.676;23.262;2023-03-09T06:03:55;93903.22;;;9.10;77.09
12077;BME280;12420;42.676;23.262;2023-03-09T06:06:23;93906.47;;;9.22;76.52
12077;BME280;12420;42.676;23.262;2023-03-09T06:08:50;93908.44;;;9.34;76.38
12077;BME280;12420;42.676;23.262;2023-03-09T06:11:19;93917.25;;;9.33;76.08
12077;BME280;12420;42.676;23.262;2023-03-09T06:13:46;93919.63;;;9.29;75.78
12077;BME280;12420;42.676;23.262;2023-03-09T06:16:14;93903.94;;;9.45;75.01
12077;BME280;12420;42.676;23.262;2023-03-09T06:18:41;93944.00;;;9.38;74.75
12077;BME280;12420;42.676;23.262;2023-03-09T06:21:09;93798.88;;;8.74;75.52
12077;BME280;12420;42.676;23.262;2023-03-09T06:23:36;93921.78;;;9.44;74.32
12077;BME280;12420;42.676;23.262;2023-03-09T06:26:09;93894.44;;;9.53;74.77
12077;BME280;12420;42.676;23.262;2023-03-09T06:28:38;93758.78;;;8.60;73.91
12077;BME280;12420;42.676;23.262;2023-03-09T06:31:05;93866.03;;;9.45;74.74
12077;BME280;12420;42.676;23.262;2023-03-09T06:33:33;93892.19;;;9.65;73.95
12077;BME280;12420;42.676;23.262;2023-03-09T06:36:00;93866.09;;;9.53;73.56
12077;BME280;12420;42.676;23.262;2023-03-09T06:38:28;93864.97;;;9.69;73.91
12077;BME280;12420;42.676;23.262;2023-03-09T06:40:55;93900.25;;;9.84;72.99
12077;BME280;12420;42.676;23.262;2023-03-09T06:43:22;93915.94;;;9.89;73.38
12077;BME280;12420;42.676;23.262;2023-03-09T06:45:51;93854.22;;;9.66;71.93
12077;BME280;12420;42.676;23.262;2023-03-09T06:48:18;93890.19;;;9.94;72.14
12077;BME280;12420;42.676;23.262;2023-03-09T06:50:46;93855.44;;;9.78;72.91
12077;BME280;12420;42.676;23.262;2023-03-09T06:53:14;93854.03;;;9.64;72.70
12077;BME280;12420;42.676;23.262;2023-03-09T06:55:41;93874.56;;;9.76;73.15
12077;BME280;12420;42.676;23.262;2023-03-09T06:58:08;93856.03;;;9.84;72.53
12077;BME280;12420;42.676;23.262;2023-03-09T07:00:35;93833.22;;;9.63;72.30
12077;BME280;12420;42.676;23.262;2023-03-09T07:03:06;93855.56;;;9.93;72.52
12077;BME280;12420;42.676;23.262;2023-03-09T07:05:34;93867.31;;;10.15;71.52
12077;BME280;12420;42.676;23.262;2023-03-09T07:08:02;93870.78;;;10.08;71.61
12077;BME280;12420;42.676;23.262;2023-03-09T07:10:29;93834.69;;;10.13;71.39
12077;BME280;12420;42.676;23.262;2023-03-09T07:12:57;93865.53;;;10.46;71.38
12077;BME280;12420;42.676;23.262;2023-03-09T07:15:24;93881.63;;;10.63;69.92
12077;BME280;12420;42.676;23.262;2023-03-09T07:17:51;93785.06;;;10.08;69.30
12077;BME280;12420;42.676;23.262;2023-03-09T07:20:19;93880.81;;;10.83;69.30
12077;BME280;12420;42.676;23.262;2023-03-09T07:22:49;93874.22;;;10.86;69.21
12077;BME280;12420;42.676;23.262;2023-03-09T07:25:16;93867.69;;;10.76;68.51
12077;BME280;12420;42.676;23.262;2023-03-09T07:27:43;93891.94;;;10.99;68.97
12077;BME280;12420;42.676;23.262;2023-03-09T07:30:10;93886.38;;;10.91;68.40
12077;BME280;12420;42.676;23.262;2023-03-09T07:32:37;93891.97;;;11.06;68.39
12077;BME280;12420;42.676;23.262;2023-03-09T07:35:05;93869.97;;;10.93;68.17
12077;BME280;12420;42.676;23.262;2023-03-09T07:37:34;93898.88;;;11.28;69.54
12077;BME280;12420;42.676;23.262;2023-03-09T07:40:00;93872.50;;;11.27;66.85
12077;BME280;12420;42.676;23.262;2023-03-09T07:42:27;93872.47;;;11.20;66.99
12077;BME280;12420;42.676;23.262;2023-03-09T07:44:54;93894.88;;;11.45;66.15
12077;BME280;12420;42.676;23.262;2023-03-09T07:47:21;93895.97;;;11.49;66.17
12077;BME280;12420;42.676;23.262;2023-03-09T07:49:49;93871.41;;;11.46;66.50
12077;BME280;12420;42.676;23.262;2023-03-09T07:52:16;93902.16;;;11.79;65.90
12077;BME280;12420;42.676;23.262;2023-03-09T07:54:44;93852.59;;;11.60;64.38
12077;BME280;12420;42.676;23.262;2023-03-09T07:57:10;93873.88;;;11.88;63.52
12077;BME280;12420;42.676;23.262;2023-03-09T07:59:37;93896.06;;;12.11;63.52
12077;BME280;12420;42.676;23.262;2023-03-09T08:02:04;93888.13;;;12.23;63.36
12077;BME280;12420;42.676;23.262;2023-03-09T08:04:32;93850.00;;;11.85;64.08
12077;BME280;12420;42.676;23.262;2023-03-09T08:06:59;93879.25;;;12.32;63.25
12077;BME280;12420;42.676;23.262;2023-03-09T08:09:25;93883.31;;;12.15;62.71
12077;BME280;12420;42.676;23.262;2023-03-09T08:11:54;93872.78;;;12.29;67.22
12077;BME280;12420;42.676;23.262;2023-03-09T08:14:21;93877.75;;;12.15;62.34
12077;BME280;12420;42.676;23.262;2023-03-09T08:16:52;93890.16;;;12.14;62.69
12077;BME280;12420;42.676;23.262;2023-03-09T08:19:20;93851.53;;;12.16;62.99
12077;BME280;12420;42.676;23.262;2023-03-09T08:21:47;93857.06;;;12.16;62.38
12077;BME280;12420;42.676;23.262;2023-03-09T08:24:14;93886.81;;;12.54;62.99
12077;BME280;12420;42.676;23.262;2023-03-09T08:26:44;93873.69;;;12.40;63.42
12077;BME280;12420;42.676;23.262;2023-03-09T08:29:14;93880.88;;;12.50;63.34
12077;BME280;12420;42.676;23.262;2023-03-09T08:31:40;93855.94;;;12.27;63.34
12077;BME280;12420;42.676;23.262;2023-03-09T08:34:08;93900.13;;;12.48;63.58
12077;BME280;12420;42.676;23.262;2023-03-09T08:36:35;93831.69;;;12.35;63.01
12077;BME280;12420;42.676;23.262;2023-03-09T08:39:02;93886.75;;;12.70;62.49
12077;BME280;12420;42.676;23.262;2023-03-09T08:41:29;93879.84;;;12.86;61.92
12077;BME280;12420;42.676;23.262;2023-03-09T08:43:56;93851.72;;;12.82;61.35
12077;BME280;12420;42.676;23.262;2023-03-09T08:46:26;93863.91;;;12.94;60.89
12077;BME280;12420;42.676;23.262;2023-03-09T08:48:53;93880.56;;;12.94;61.30
12077;BME280;12420;42.676;23.262;2023-03-09T08:51:21;93898.34;;;12.91;61.25
12077;BME280;12420;42.676;23.262;2023-03-09T08:53:48;93870.91;;;13.03;60.81
12077;BME280;12420;42.676;23.262;2023-03-09T08:56:16;93868.97;;;12.80;60.97
12077;BME280;12420;42.676;23.262;2023-03-09T08:58:42;93889.59;;;13.02;61.72
12077;BME280;12420;42.676;23.262;2023-03-09T09:01:09;93764.78;;;12.24;61.33
12077;BME280;12420;42.676;23.262;2023-03-09T09:03:40;93872.94;;;13.02;61.07
12077;BME280;12420;42.676;23.262;2023-03-09T09:06:09;93753.72;;;12.56;62.01
12077;BME280;12420;42.676;23.262;2023-03-09T09:08:38;93818.25;;;12.80;61.64
12077;BME280;12420;42.676;23.262;2023-03-09T09:11:06;93765.66;;;12.34;61.97
12077;BME280;12420;42.676;23.262;2023-03-09T09:13:33;93774.53;;;12.40;62.03
12077;BME280;12420;42.676;23.262;2023-03-09T09:16:00;93833.88;;;13.00;61.93
12077;BME280;12420;42.676;23.262;2023-03-09T09:18:27;93753.25;;;12.35;61.74
12077;BME280;12420;42.676;23.262;2023-03-09T09:20:55;93836.19;;;13.27;61.35
12077;BME280;12420;42.676;23.262;2023-03-09T09:23:22;93765.78;;;12.92;61.54
12077;BME280;12420;42.676;23.262;2023-03-09T09:25:53;93779.94;;;12.71;60.20
12077;BME280;12420;42.676;23.262;2023-03-09T09:28:20;93821.34;;;13.57;59.80
12077;BME280;12420;42.676;23.262;2023-03-09T09:30:52;93791.00;;;13.27;59.59
12077;BME280;12420;42.676;23.262;2023-03-09T09:33:19;93808.81;;;13.49;60.35
12077;BME280;12420;42.676;23.262;2023-03-09T09:35:56;93802.44;;;13.56;60.48
12077;BME280;12420;42.676;23.262;2023-03-09T09:38:23;93799.53;;;13.54;60.14
12077;BME280;12420;42.676;23.262;2023-03-09T09:40:50;93765.81;;;13.50;59.22
12077;BME280;12420;42.676;23.262;2023-03-09T09:43:17;93752.38;;;13.81;58.34
12077;BME280;12420;42.676;23.262;2023-03-09T09:45:44;93802.78;;;14.10;57.85
12077;BME280;12420;42.676;23.262;2023-03-09T09:48:14;93817.28;;;14.43;56.66
12077;BME280;12420;42.676;23.262;2023-03-09T09:51:09;93768.84;;;13.86;56.55
12077;BME280;12420;42.676;23.262;2023-03-09T09:53:44;93802.88;;;14.72;57.38
12077;BME280;12420;42.676;23.262;2023-03-09T09:56:18;93831.16;;;14.86;57.64
12077;BME280;12420;42.676;23.262;2023-03-09T09:58:46;93710.34;;;14.46;57.35
12077;BME280;12420;42.676;23.262;2023-03-09T10:01:21;93790.66;;;15.29;56.46
12077;BME280;12420;42.676;23.262;2023-03-09T10:03:51;93720.28;;;15.11;55.97
12077;BME280;12420;42.676;23.262;2023-03-09T10:06:24;93770.19;;;15.81;54.90
12077;BME280;12420;42.676;23.262;2023-03-09T10:08:54;93772.97;;;15.81;54.82
12077;BME280;12420;42.676;23.262;2023-03-09T10:11:23;93753.88;;;15.77;54.86
12077;BME280;12420;42.676;23.262;2023-03-09T10:13:58;93759.06;;;16.10;54.38
12077;BME280;12420;42.676;23.262;2023-03-09T10:16:31;93742.19;;;16.08;53.99
12077;BME280;12420;42.676;23.262;2023-03-09T10:19:01;93733.66;;;16.06;54.01
12077;BME280;12420;42.676;23.262;2023-03-09T10:21:34;93696.19;;;15.90;53.85
12077;BME280;12420;42.676;23.262;2023-03-09T10:24:17;93750.56;;;16.18;54.27
12077;BME280;12420;42.676;23.262;2023-03-09T10:26:51;93723.09;;;16.04;53.87
12077;BME280;12420;42.676;23.262;2023-03-09T10:29:26;93726.94;;;16.28;53.94
12077;BME280;12420;42.676;23.262;2023-03-09T10:31:59;93623.00;;;15.62;53.34
12077;BME280;12420;42.676;23.262;2023-03-09T10:34:34;93662.56;;;16.17;53.32
12077;BME280;12420;42.676;23.262;2023-03-09T10:37:11;93708.41;;;16.53;53.60
12077;BME280;12420;42.676;23.262;2023-03-09T10:39:44;93722.53;;;16.55;52.84
12077;BME280;12420;42.676;23.262;2023-03-09T10:42:17;93721.06;;;16.44;53.10
12077;BME280;12420;42.676;23.262;2023-03-09T10:44:56;93715.59;;;16.56;52.85
12077;BME280;12420;42.676;23.262;2023-03-09T10:47:25;93655.22;;;16.31;52.83
12077;BME280;12420;42.676;23.262;2023-03-09T10:50:07;93693.69;;;16.52;52.20
12077;BME280;12420;42.676;23.262;2023-03-09T10:52:36;93709.69;;;16.71;52.06
12077;BME280;12420;42.676;23.262;2023-03-09T10:55:26;93702.34;;;16.85;52.18
12077;BME280;12420;42.676;23.262;2023-03-09T10:57:58;93637.38;;;16.56;52.14
12077;BME280;12420;42.676;23.262;2023-03-09T11:00:27;93604.47;;;16.54;51.15
12077;BME280;12420;42.676;23.262;2023-03-09T11:02:58;93656.88;;;16.95;50.80
12077;BME280;12420;42.676;23.262;2023-03-09T11:05:28;93699.53;;;17.05;50.16
12077;BME280;12420;42.676;23.262;2023-03-09T11:07:58;93723.03;;;17.11;50.45
12077;BME280;12420;42.676;23.262;2023-03-09T11:10:29;93682.09;;;17.16;50.37
12077;BME280;12420;42.676;23.262;2023-03-09T11:12:57;93671.66;;;17.17;50.04
12077;BME280;12420;42.676;23.262;2023-03-09T11:15:27;93619.31;;;17.07;49.71
12077;BME280;12420;42.676;23.262;2023-03-09T11:17:56;93662.47;;;17.35;49.98
12077;BME280;12420;42.676;23.262;2023-03-09T11:20:34;93700.44;;;17.39;49.70
12077;BME280;12420;42.676;23.262;2023-03-09T11:23:10;93676.94;;;17.53;49.96
12077;BME280;12420;42.676;23.262;2023-03-09T11:26:00;93652.09;;;17.48;48.85
12077;BME280;12420;42.676;23.262;2023-03-09T11:28:37;93658.78;;;17.64;49.23
12077;BME280;12420;42.676;23.262;2023-03-09T11:31:11;93627.84;;;17.62;48.47
12077;BME280;12420;42.676;23.262;2023-03-09T11:33:38;93558.41;;;17.06;48.08
12077;BME280;12420;42.676;23.262;2023-03-09T11:36:10;93595.69;;;17.51;47.97
12077;BME280;12420;42.676;23.262;2023-03-09T11:41:34;93643.22;;;18.04;47.78
12077;BME280;12420;42.676;23.262;2023-03-09T11:44:07;93605.22;;;18.01;47.46
12077;BME280;12420;42.676;23.262;2023-03-09T11:46:39;93550.56;;;17.14;47.60
12077;BME280;12420;42.676;23.262;2023-03-09T11:49:10;93608.34;;;17.95;47.92
12077;BME280;12420;42.676;23.262;2023-03-09T11:51:43;93487.19;;;17.07;47.49
12077;BME280;12420;42.676;23.262;2023-03-09T11:54:19;93594.88;;;18.04;48.10
12077;BME280;12420;42.676;23.262;2023-03-09T11:56:52;93582.44;;;17.95;47.78
12077;BME280;12420;42.676;23.262;2023-03-09T11:59:25;93563.09;;;17.99;47.51
12077;BME280;12420;42.676;23.262;2023-03-09T12:01:58;93571.53;;;18.11;47.69
12077;BME280;12420;42.676;23.262;2023-03-09T12:04:30;93568.38;;;18.16;47.20
12077;BME280;12420;42.676;23.262;2023-03-09T12:06:58;93554.44;;;17.95;47.75
12077;BME280;12420;42.676;23.262;2023-03-09T12:09:44;93557.63;;;18.01;47.87
12077;BME280;12420;42.676;23.262;2023-03-09T12:12:23;93565.41;;;18.03;47.42
12077;BME280;12420;42.676;23.262;2023-03-09T12:14:55;93487.66;;;17.46;47.73
12077;BME280;12420;42.676;23.262;2023-03-09T12:17:31;93553.66;;;18.16;47.50
12077;BME280;12420;42.676;23.262;2023-03-09T12:20:17;93477.72;;;17.55;46.94
12077;BME280;12420;42.676;23.262;2023-03-09T12:22:45;93572.94;;;18.33;46.95
12077;BME280;12420;42.676;23.262;2023-03-09T12:25:17;93429.91;;;17.51;46.79
12077;BME280;12420;42.676;23.262;2023-03-09T12:27:51;93538.78;;;18.13;47.00
12077;BME280;12420;42.676;23.262;2023-03-09T12:30:22;93467.28;;;17.89;47.26
12077;BME280;12420;42.676;23.262;2023-03-09T12:32:50;93556.53;;;18.39;46.88
12077;BME280;12420;42.676;23.262;2023-03-09T12:38:24;93486.03;;;17.98;45.96
12077;BME280;12420;42.676;23.262;2023-03-09T12:40:53;93530.06;;;18.31;46.36
12077;BME280;12420;42.676;23.262;2023-03-09T12:43:44;93428.84;;;17.56;46.01
12077;BME280;12420;42.676;23.262;2023-03-09T12:49:27;93508.69;;;18.02;46.75
12077;BME280;12420;42.676;23.262;2023-03-09T12:52:38;93522.75;;;18.26;46.94
12077;BME280;12420;42.676;23.262;2023-03-09T12:55:16;93505.63;;;17.98;47.08
12077;BME280;12420;42.676;23.262;2023-03-09T12:57:44;93496.00;;;17.89;46.82
12077;BME280;12420;42.676;23.262;2023-03-09T13:00:26;93539.38;;;18.45;46.51
12077;BME280;12420;42.676;23.262;2023-03-09T13:02:58;93540.31;;;18.38;46.36
12077;BME280;12420;42.676;23.262;2023-03-09T13:05:39;93514.22;;;18.23;46.74
12077;BME280;12420;42.676;23.262;2023-03-09T13:08:22;93458.09;;;17.76;46.68
12077;BME280;12420;42.676;23.262;2023-03-09T13:11:25;93519.44;;;18.17;46.67
12077;BME280;12420;42.676;23.262;2023-03-09T13:13:57;93511.28;;;18.21;47.24
12077;BME280;12420;42.676;23.262;2023-03-09T13:16:48;93483.47;;;17.90;46.93